createdAt,value
2023-05-24T00:00:55.349Z,6.70
2023-05-24T00:03:30.435Z,7.90
2023-05-24T00:05:57.297Z,10.90
2023-05-24T00:08:24.013Z,12.20
2023-05-24T00:10:50.782Z,10.40
2023-05-24T00:13:17.858Z,11.50
2023-05-24T00:15:44.558Z,9.90
2023-05-24T00:18:11.256Z,10.00
2023-05-24T00:20:38.091Z,8.90
2023-05-24T00:23:04.966Z,11.30
2023-05-24T00:25:31.646Z,11.00
2023-05-24T00:27:58.331Z,12.30
2023-05-24T00:30:25.850Z,13.40
2023-05-24T00:32:55.475Z,9.80
2023-05-24T00:35:23.268Z,9.40
2023-05-24T00:37:50.274Z,9.10
2023-05-24T00:40:16.967Z,9.60
2023-05-24T00:42:43.816Z,12.20
2023-05-24T00:45:10.583Z,13.00
2023-05-24T00:47:37.342Z,12.10
2023-05-24T00:50:04.428Z,14.30
2023-05-24T00:52:31.357Z,17.00
2023-05-24T00:54:58.112Z,14.50
2023-05-24T00:57:24.782Z,13.60
2023-05-24T00:59:52.126Z,14.50
2023-05-24T01:02:18.816Z,11.10
2023-05-24T01:04:48.518Z,13.40
2023-05-24T01:07:16.591Z,11.20
2023-05-24T01:09:56.309Z,11.20
2023-05-24T01:12:32.016Z,11.90
2023-05-24T01:15:01.695Z,12.80
2023-05-24T01:17:32.063Z,10.30
2023-05-24T01:20:09.740Z,10.40
2023-05-24T01:22:42.604Z,13.00
2023-05-24T01:25:15.435Z,11.10
2023-05-24T01:27:42.779Z,12.70
2023-05-24T01:30:09.855Z,13.10
2023-05-24T01:32:37.947Z,11.60
2023-05-24T01:35:06.311Z,12.20
2023-05-24T01:37:33.024Z,10.60
2023-05-24T01:40:00.438Z,12.30
2023-05-24T01:42:36.052Z,10.30
2023-05-24T01:45:05.852Z,14.10
2023-05-24T01:47:46.764Z,12.20
2023-05-24T01:50:47.567Z,14.00
2023-05-24T01:53:15.322Z,10.00
2023-05-24T01:55:43.239Z,12.30
2023-05-24T01:58:10.924Z,10.80
2023-05-24T02:00:38.597Z,9.10
2023-05-24T02:03:06.389Z,8.90
2023-05-24T02:05:33.434Z,13.70
2023-05-24T02:08:05.329Z,14.00
2023-05-24T02:10:32.115Z,12.50
2023-05-24T02:12:59.120Z,13.00
2023-05-24T02:15:29.925Z,10.90
2023-05-24T02:17:58.137Z,10.10
2023-05-24T02:20:25.015Z,10.90
2023-05-24T02:22:51.790Z,14.70
2023-05-24T02:25:18.447Z,12.00
2023-05-24T02:27:46.730Z,15.70
2023-05-24T02:30:13.525Z,11.10
2023-05-24T02:32:41.025Z,9.60
2023-05-24T02:35:07.732Z,11.90
2023-05-24T02:37:35.428Z,12.90
2023-05-24T02:40:02.104Z,11.10
2023-05-24T02:42:28.801Z,12.30
2023-05-24T02:44:55.512Z,15.70
2023-05-24T02:47:22.802Z,13.00
2023-05-24T02:49:49.658Z,14.70
2023-05-24T02:52:21.140Z,13.00
2023-05-24T02:54:48.076Z,13.90
2023-05-24T02:57:16.215Z,11.90
2023-05-24T02:59:43.329Z,15.10
2023-05-24T03:02:13.250Z,16.80
2023-05-24T03:04:39.945Z,15.00
2023-05-24T03:07:08.431Z,11.70
2023-05-24T03:09:35.182Z,14.90
2023-05-24T03:12:02.254Z,12.30
2023-05-24T03:14:30.120Z,15.40
2023-05-24T03:16:56.769Z,10.30
2023-05-24T03:19:23.536Z,15.10
2023-05-24T03:21:50.399Z,16.20
2023-05-24T03:24:17.680Z,13.70
2023-05-24T03:26:44.826Z,16.60
2023-05-24T03:29:11.535Z,17.30
2023-05-24T03:31:40.372Z,12.00
2023-05-24T03:34:07.605Z,12.30
2023-05-24T03:36:36.031Z,11.50
2023-05-24T03:39:04.146Z,12.20
2023-05-24T03:41:33.711Z,14.50
2023-05-24T03:44:00.518Z,13.40
2023-05-24T03:46:28.981Z,11.50
2023-05-24T03:48:55.823Z,8.90
2023-05-24T03:51:28.834Z,10.50
2023-05-24T03:53:56.808Z,10.70
2023-05-24T03:56:23.772Z,9.40
2023-05-24T03:58:51.785Z,9.70
2023-05-24T04:01:32.047Z,8.60
2023-05-24T04:04:00.854Z,10.10
2023-05-24T04:06:30.612Z,8.40
2023-05-24T04:08:59.279Z,7.40
2023-05-24T04:11:29.389Z,11.20
2023-05-24T04:13:57.157Z,8.30
2023-05-24T04:16:25.606Z,9.50
2023-05-24T04:18:52.972Z,9.20
2023-05-24T04:21:19.978Z,8.20
2023-05-24T04:23:46.929Z,9.60
2023-05-24T04:26:17.156Z,7.10
2023-05-24T04:28:45.074Z,7.60
2023-05-24T04:31:15.977Z,7.40
2023-05-24T04:33:42.730Z,6.60
2023-05-24T04:36:11.068Z,12.10
2023-05-24T04:38:38.380Z,14.40
2023-05-24T04:41:08.049Z,12.00
2023-05-24T04:43:34.805Z,14.00
2023-05-24T04:46:01.766Z,15.50
2023-05-24T04:48:28.544Z,16.10
2023-05-24T04:50:55.932Z,12.40
2023-05-24T04:53:22.876Z,11.80
2023-05-24T04:55:50.045Z,12.00
2023-05-24T04:58:16.946Z,12.10
2023-05-24T05:00:44.342Z,13.10
2023-05-24T05:03:11.280Z,12.30
2023-05-24T05:05:38.227Z,8.90
2023-05-24T05:08:05.889Z,9.90
2023-05-24T05:10:32.756Z,9.10
2023-05-24T05:12:59.714Z,14.20
2023-05-24T05:15:27.181Z,11.70
2023-05-24T05:17:53.960Z,8.00
2023-05-24T05:20:20.845Z,8.20
2023-05-24T05:22:48.127Z,11.20
2023-05-24T05:25:15.066Z,11.30
2023-05-24T05:27:41.797Z,9.60
2023-05-24T05:30:09.015Z,9.90
2023-05-24T05:32:35.982Z,8.60
2023-05-24T05:35:03.023Z,10.90
2023-05-24T05:37:30.671Z,9.40
2023-05-24T05:39:57.333Z,9.50
2023-05-24T05:42:24.101Z,10.60
2023-05-24T05:44:52.112Z,8.70
2023-05-24T05:47:18.812Z,10.90
2023-05-24T05:49:45.591Z,9.60
2023-05-24T05:52:12.385Z,12.80
2023-05-24T05:54:39.067Z,9.10
2023-05-24T05:57:07.715Z,12.50
2023-05-24T05:59:35.672Z,10.50
2023-05-24T06:02:03.079Z,7.60
2023-05-24T06:04:29.897Z,9.30
2023-05-24T06:06:56.628Z,9.40
2023-05-24T06:09:23.393Z,7.90
2023-05-24T06:11:50.138Z,10.80
2023-05-24T06:14:18.017Z,16.40
2023-05-24T06:16:45.638Z,9.70
2023-05-24T06:19:13.206Z,8.40
2023-05-24T06:21:46.567Z,7.80
2023-05-24T06:24:20.071Z,7.50
2023-05-24T06:26:47.246Z,5.70
2023-05-24T06:29:13.969Z,5.60
2023-05-24T06:31:40.719Z,8.40
2023-05-24T06:34:07.436Z,5.90
2023-05-24T06:36:35.515Z,8.70
2023-05-24T06:39:03.465Z,7.30
2023-05-24T06:41:30.250Z,10.10
2023-05-24T06:43:56.875Z,9.40
2023-05-24T06:46:23.674Z,6.50
2023-05-24T06:48:50.442Z,6.90
2023-05-24T06:51:17.349Z,7.60
2023-05-24T06:53:44.095Z,8.50
2023-05-24T06:56:10.765Z,6.60
2023-05-24T06:58:37.495Z,10.30
2023-05-24T07:01:04.511Z,8.00
2023-05-24T07:03:31.915Z,6.60
2023-05-24T07:05:58.754Z,8.40
2023-05-24T07:08:25.948Z,5.50
2023-05-24T07:10:56.552Z,7.80
2023-05-24T07:13:23.241Z,10.40
2023-05-24T07:15:50.563Z,12.50
2023-05-24T07:18:17.262Z,6.50
2023-05-24T07:20:44.322Z,6.20
2023-05-24T07:23:11.708Z,9.10
2023-05-24T07:25:38.455Z,7.10
2023-05-24T07:28:05.484Z,7.10
2023-05-24T07:30:32.951Z,6.20
2023-05-24T07:32:59.838Z,6.70
2023-05-24T07:35:28.177Z,6.00
2023-05-24T07:37:54.924Z,13.20
2023-05-24T07:40:22.758Z,7.70
2023-05-24T07:42:49.427Z,6.30
2023-05-24T07:45:16.125Z,10.60
2023-05-24T07:47:42.850Z,4.60
2023-05-24T07:50:10.057Z,5.80
2023-05-24T07:52:38.278Z,7.40
2023-05-24T07:55:05.891Z,6.80
2023-05-24T07:57:33.220Z,6.00
2023-05-24T08:00:06.570Z,5.10
2023-05-24T08:02:38.671Z,5.60
2023-05-24T08:05:06.055Z,6.40
2023-05-24T08:07:32.959Z,5.90
2023-05-24T08:09:59.693Z,3.90
2023-05-24T08:12:26.436Z,5.80
2023-05-24T08:14:53.064Z,5.20
2023-05-24T08:17:19.768Z,7.60
2023-05-24T08:19:46.501Z,4.70
2023-05-24T08:22:13.271Z,3.30
2023-05-24T08:24:40.281Z,3.50
2023-05-24T08:27:08.114Z,5.40
2023-05-24T08:29:35.322Z,5.10
2023-05-24T08:32:02.357Z,6.90
2023-05-24T08:34:29.720Z,9.60
2023-05-24T08:36:56.359Z,7.40
2023-05-24T08:39:23.355Z,4.70
2023-05-24T08:42:04.850Z,5.30
2023-05-24T08:44:45.472Z,7.60
2023-05-24T08:47:12.813Z,5.50
2023-05-24T08:49:40.618Z,5.80
2023-05-24T08:52:07.555Z,6.90
2023-05-24T08:54:36.070Z,7.20
2023-05-24T08:57:02.984Z,3.60
2023-05-24T08:59:29.698Z,3.30
2023-05-24T09:01:57.206Z,6.00
2023-05-24T09:04:24.267Z,5.80
2023-05-24T09:06:51.728Z,7.50
2023-05-24T09:09:20.973Z,4.00
2023-05-24T09:11:51.358Z,5.70
2023-05-24T09:14:18.390Z,14.60
2023-05-24T09:16:45.338Z,8.10
2023-05-24T09:19:13.572Z,3.60
2023-05-24T09:21:40.438Z,8.20
2023-05-24T09:24:07.828Z,5.70
2023-05-24T09:26:36.201Z,5.70
2023-05-24T09:29:06.606Z,3.50
2023-05-24T09:31:34.202Z,4.80
2023-05-24T09:34:00.973Z,3.80
2023-05-24T09:36:32.563Z,2.30
2023-05-24T09:39:07.492Z,3.30
2023-05-24T09:41:34.287Z,2.50
2023-05-24T09:44:01.411Z,2.70
2023-05-24T09:46:29.365Z,2.60
2023-05-24T09:48:59.710Z,2.70
2023-05-24T09:51:26.515Z,2.60
2023-05-24T09:53:56.360Z,2.90
2023-05-24T09:56:24.430Z,5.30
2023-05-24T09:58:51.253Z,8.30
2023-05-24T10:01:18.637Z,3.20
2023-05-24T10:03:52.216Z,4.20
2023-05-24T10:06:19.278Z,8.80
2023-05-24T10:08:48.197Z,3.20
2023-05-24T10:11:15.003Z,6.30
2023-05-24T10:13:41.795Z,8.90
2023-05-24T10:16:08.533Z,2.90
2023-05-24T10:18:35.731Z,14.60
2023-05-24T10:21:07.460Z,3.50
2023-05-24T10:23:36.169Z,2.50
2023-05-24T10:26:06.086Z,5.10
2023-05-24T10:28:38.043Z,3.50
2023-05-24T10:31:07.989Z,6.50
2023-05-24T10:33:36.929Z,8.90
2023-05-24T10:36:06.524Z,4.40
2023-05-24T10:38:36.731Z,3.30
2023-05-24T10:41:04.542Z,3.40
2023-05-24T10:43:31.492Z,2.50
2023-05-24T10:45:58.476Z,4.60
2023-05-24T10:48:25.161Z,4.10
2023-05-24T10:50:52.620Z,3.60
2023-05-24T10:53:23.466Z,2.50
2023-05-24T10:55:52.144Z,2.40
2023-05-24T10:58:19.908Z,4.50
2023-05-24T11:00:48.523Z,4.30
2023-05-24T11:03:23.081Z,3.30
2023-05-24T11:05:51.201Z,4.70
2023-05-24T11:08:32.626Z,2.00
2023-05-24T11:13:41.407Z,3.40
2023-05-24T11:16:08.307Z,5.40
2023-05-24T11:18:38.593Z,3.40
2023-05-24T11:21:06.227Z,5.60
2023-05-24T11:23:33.962Z,3.00
2023-05-24T11:26:03.118Z,5.10
2023-05-24T11:28:30.441Z,3.60
2023-05-24T11:30:57.164Z,3.70
2023-05-24T11:33:24.083Z,3.40
2023-05-24T11:35:51.678Z,4.20
2023-05-24T11:38:22.238Z,4.90
2023-05-24T11:40:50.934Z,3.10
2023-05-24T11:43:19.046Z,4.60
2023-05-24T11:45:51.385Z,4.00
2023-05-24T11:48:18.835Z,2.40
2023-05-24T11:50:49.852Z,2.20
2023-05-24T11:53:18.249Z,9.80
2023-05-24T11:55:45.044Z,3.50
2023-05-24T11:58:42.330Z,4.00
2023-05-24T12:01:22.432Z,5.20
2023-05-24T12:03:50.586Z,2.20
2023-05-24T12:06:17.712Z,4.80
2023-05-24T12:08:44.761Z,5.10
2023-05-24T12:11:11.901Z,6.00
2023-05-24T12:13:39.985Z,3.50
2023-05-24T12:16:07.909Z,4.20
2023-05-24T12:18:36.230Z,2.60
2023-05-24T12:21:06.756Z,2.60
2023-05-24T12:23:34.883Z,4.30
2023-05-24T12:26:01.777Z,2.10
2023-05-24T12:28:38.623Z,2.10
2023-05-24T12:31:05.934Z,4.20
2023-05-24T12:33:32.887Z,3.50
2023-05-24T12:35:59.651Z,1.40
2023-05-24T12:38:26.561Z,4.10
2023-05-24T12:41:08.122Z,5.00
2023-05-24T12:43:40.189Z,3.20
2023-05-24T12:46:07.218Z,4.30
2023-05-24T12:48:33.969Z,5.70
2023-05-24T12:51:01.716Z,2.80
2023-05-24T12:53:28.511Z,5.60
2023-05-24T12:55:55.691Z,3.70
2023-05-24T12:58:22.588Z,4.20
2023-05-24T13:00:51.499Z,4.40
2023-05-24T13:03:18.548Z,4.80
2023-05-24T13:05:46.776Z,11.00
2023-05-24T13:08:14.181Z,5.20
2023-05-24T13:10:41.151Z,4.10
2023-05-24T13:13:08.051Z,3.00
2023-05-24T13:15:35.492Z,5.00
2023-05-24T13:18:02.410Z,2.70
2023-05-24T13:20:29.280Z,3.70
2023-05-24T13:22:55.980Z,3.70
2023-05-24T13:25:22.774Z,5.00
2023-05-24T13:27:49.663Z,5.10
2023-05-24T13:30:16.974Z,8.90
2023-05-24T13:32:43.759Z,1.90
2023-05-24T13:35:10.935Z,6.60
2023-05-24T13:37:37.635Z,11.70
2023-05-24T13:40:05.598Z,5.40
2023-05-24T13:42:32.342Z,2.40
2023-05-24T13:44:59.234Z,3.90
2023-05-24T13:47:35.862Z,4.40
2023-05-24T13:50:06.317Z,4.60
2023-05-24T13:52:33.283Z,3.10
2023-05-24T13:55:00.948Z,4.20
2023-05-24T13:57:33.669Z,3.00
2023-05-24T14:00:10.626Z,3.80
2023-05-24T14:02:38.770Z,2.60
2023-05-24T14:05:24.750Z,2.20
2023-05-24T14:07:53.954Z,5.80
2023-05-24T14:10:21.764Z,5.30
2023-05-24T14:12:59.363Z,4.70
2023-05-24T14:15:35.892Z,4.00
2023-05-24T14:18:07.454Z,2.30
2023-05-24T14:20:37.335Z,2.80
2023-05-24T14:23:04.482Z,3.90
2023-05-24T14:25:31.633Z,3.70
2023-05-24T14:27:58.701Z,3.00
2023-05-24T14:30:25.798Z,3.00
2023-05-24T14:32:52.455Z,5.80
2023-05-24T14:35:19.780Z,5.60
2023-05-24T14:37:46.651Z,4.70
2023-05-24T14:40:13.561Z,10.80
2023-05-24T14:42:40.842Z,3.80
2023-05-24T14:45:08.246Z,4.70
2023-05-24T14:47:35.260Z,8.70
2023-05-24T14:50:02.115Z,5.40
2023-05-24T14:52:28.879Z,3.10
2023-05-24T14:54:55.653Z,3.40
2023-05-24T14:57:22.493Z,2.10
2023-05-24T14:59:49.336Z,11.10
2023-05-24T15:02:16.641Z,8.40
2023-05-24T15:04:43.641Z,7.00
2023-05-24T15:07:11.159Z,5.60
2023-05-24T15:09:38.092Z,4.50
2023-05-24T15:12:05.578Z,5.30
2023-05-24T15:14:32.372Z,5.60
2023-05-24T15:16:59.245Z,10.90
2023-05-24T15:19:26.299Z,4.30
2023-05-24T15:21:53.461Z,2.50
2023-05-24T15:24:20.325Z,5.20
2023-05-24T15:26:47.026Z,5.50
2023-05-24T15:29:13.721Z,5.10
2023-05-24T15:31:40.884Z,7.30
2023-05-24T15:34:08.110Z,6.20
2023-05-24T15:36:35.957Z,9.60
2023-05-24T15:39:02.935Z,6.00
2023-05-24T15:41:29.646Z,5.30
2023-05-24T15:43:57.820Z,7.60
2023-05-24T15:46:24.919Z,8.60
2023-05-24T15:48:51.898Z,7.80
2023-05-24T15:53:48.917Z,5.30
2023-05-24T15:56:16.148Z,8.90
2023-05-24T15:58:43.173Z,12.00
2023-05-24T16:01:09.933Z,6.30
2023-05-24T16:03:37.572Z,6.20
2023-05-24T16:06:05.129Z,10.40
2023-05-24T16:08:32.094Z,8.00
2023-05-24T16:10:59.158Z,5.30
2023-05-24T16:13:25.961Z,4.30
2023-05-24T16:15:52.782Z,7.30
2023-05-24T16:18:23.508Z,5.50
2023-05-24T16:20:50.847Z,5.60
2023-05-24T16:23:18.244Z,9.00
2023-05-24T16:25:48.873Z,3.20
2023-05-24T16:28:15.945Z,6.30
2023-05-24T16:30:43.196Z,6.80
2023-05-24T16:33:10.201Z,5.10
2023-05-24T16:35:37.294Z,7.50
2023-05-24T16:38:04.033Z,5.00
2023-05-24T16:40:30.775Z,12.30
2023-05-24T16:42:57.633Z,5.00
2023-05-24T16:45:24.569Z,7.30
2023-05-24T16:47:51.368Z,4.30
2023-05-24T16:50:18.538Z,8.10
2023-05-24T16:52:45.204Z,16.40
2023-05-24T16:55:12.541Z,10.40
2023-05-24T16:57:39.274Z,14.40
2023-05-24T17:00:07.124Z,7.00
2023-05-24T17:02:34.371Z,8.40
2023-05-24T17:05:01.249Z,10.00
2023-05-24T17:07:28.479Z,9.30
2023-05-24T17:09:55.555Z,12.90
2023-05-24T17:12:22.682Z,10.90
2023-05-24T17:14:49.834Z,7.90
2023-05-24T17:17:16.907Z,12.20
2023-05-24T17:19:43.811Z,15.50
2023-05-24T17:22:10.707Z,17.70
2023-05-24T17:24:37.761Z,15.70
2023-05-24T17:27:04.643Z,12.20
2023-05-24T17:29:31.779Z,21.40
2023-05-24T17:31:58.550Z,6.90
2023-05-24T17:34:25.605Z,14.40
2023-05-24T17:36:52.322Z,11.20
2023-05-24T17:39:21.122Z,10.50
2023-05-24T17:41:47.993Z,7.80
2023-05-24T17:44:14.836Z,12.80
2023-05-24T17:46:41.899Z,11.50
2023-05-24T17:49:11.025Z,11.00
2023-05-24T17:51:38.499Z,10.70
2023-05-24T17:54:05.918Z,14.30
2023-05-24T17:56:32.990Z,11.00
2023-05-24T17:59:00.011Z,7.40
2023-05-24T18:01:28.725Z,6.20
2023-05-24T18:03:55.854Z,5.40
2023-05-24T18:06:22.899Z,8.00
2023-05-24T18:08:49.661Z,5.70
2023-05-24T18:11:16.892Z,5.10
2023-05-24T18:13:43.842Z,6.20
2023-05-24T18:16:11.920Z,5.50
2023-05-24T18:18:39.257Z,5.00
2023-05-24T18:21:07.056Z,19.50
2023-05-24T18:23:36.982Z,8.60
2023-05-24T18:26:06.003Z,5.40
2023-05-24T18:28:39.016Z,7.10
2023-05-24T18:31:13.965Z,12.80
2023-05-24T18:33:40.772Z,6.90
2023-05-24T18:36:08.388Z,9.10
2023-05-24T18:38:35.981Z,10.40
2023-05-24T18:41:05.749Z,6.70
2023-05-24T18:43:33.299Z,11.80
2023-05-24T18:46:00.533Z,17.50
2023-05-24T18:48:27.365Z,4.90
2023-05-24T18:50:54.438Z,6.90
2023-05-24T18:53:21.490Z,4.70
2023-05-24T18:55:48.470Z,9.70
2023-05-24T18:58:15.571Z,5.50
2023-05-24T19:00:42.838Z,11.20
2023-05-24T19:03:11.358Z,5.20
2023-05-24T19:05:40.637Z,3.60
2023-05-24T19:08:09.499Z,9.80
2023-05-24T19:10:36.487Z,5.90
2023-05-24T19:13:03.483Z,10.90
2023-05-24T19:15:30.249Z,7.30
2023-05-24T19:17:57.368Z,7.40
2023-05-24T19:20:24.588Z,11.90
2023-05-24T19:22:52.533Z,11.00
2023-05-24T19:25:20.777Z,6.80
2023-05-24T19:27:59.432Z,8.80
2023-05-24T19:30:28.122Z,6.40
2023-05-24T19:32:55.483Z,8.00
2023-05-24T19:35:22.782Z,5.80
2023-05-24T19:37:49.935Z,7.50
2023-05-24T19:40:18.791Z,5.40
2023-05-24T19:42:45.840Z,9.50
2023-05-24T19:45:12.930Z,10.40
2023-05-24T19:47:40.800Z,11.90
2023-05-24T19:50:08.063Z,11.10
2023-05-24T19:52:35.142Z,8.50
2023-05-24T19:55:02.163Z,6.40
2023-05-24T19:57:28.810Z,13.90
2023-05-24T19:59:55.946Z,10.10
2023-05-24T20:02:22.765Z,15.20
2023-05-24T20:04:49.789Z,12.20
2023-05-24T20:07:16.797Z,12.00
2023-05-24T20:09:43.775Z,10.00
2023-05-24T20:12:11.513Z,7.30
2023-05-24T20:14:38.599Z,8.30
2023-05-24T20:17:05.255Z,8.50
2023-05-24T20:19:31.923Z,9.30
2023-05-24T20:21:58.822Z,6.70
2023-05-24T20:24:25.918Z,9.20
2023-05-24T20:26:52.567Z,5.30
2023-05-24T20:29:19.789Z,8.60
2023-05-24T20:31:46.903Z,6.30
2023-05-24T20:34:13.652Z,5.00
2023-05-24T20:36:42.738Z,7.00
2023-05-24T20:39:10.380Z,11.70
2023-05-24T20:41:37.026Z,8.50
2023-05-24T20:44:03.893Z,5.50
2023-05-24T20:46:31.201Z,6.00
2023-05-24T20:48:58.221Z,9.90
2023-05-24T20:51:24.999Z,4.50
2023-05-24T20:53:52.777Z,4.40
2023-05-24T20:56:20.880Z,5.70
2023-05-24T20:58:52.108Z,5.30
2023-05-24T21:01:19.773Z,8.10
2023-05-24T21:03:46.724Z,5.40
2023-05-24T21:06:13.591Z,7.10
2023-05-24T21:08:40.339Z,4.70
2023-05-24T21:11:07.044Z,8.10
2023-05-24T21:13:33.752Z,7.20
2023-05-24T21:16:01.690Z,11.40
2023-05-24T21:18:28.426Z,6.80
2023-05-24T21:20:55.189Z,6.60
2023-05-24T21:23:21.887Z,6.70
2023-05-24T21:25:48.711Z,9.50
2023-05-24T21:28:15.416Z,10.60
2023-05-24T21:30:42.164Z,12.70
2023-05-24T21:33:08.960Z,11.00
2023-05-24T21:35:36.488Z,8.20
2023-05-24T21:38:03.253Z,9.60
2023-05-24T21:40:30.040Z,8.30
2023-05-24T21:42:56.761Z,7.80
2023-05-24T21:45:23.538Z,8.70
2023-05-24T21:47:50.337Z,9.50
2023-05-24T21:50:17.127Z,11.90
2023-05-24T21:52:43.897Z,11.20
2023-05-24T21:55:10.553Z,10.50
2023-05-24T21:57:37.646Z,9.20
2023-05-24T22:00:04.765Z,9.20
2023-05-24T22:02:32.188Z,13.60
2023-05-24T22:04:59.020Z,9.50
2023-05-24T22:07:25.783Z,9.80
2023-05-24T22:09:52.489Z,9.50
2023-05-24T22:12:19.461Z,8.10
2023-05-24T22:14:46.614Z,8.80
2023-05-24T22:17:13.732Z,13.20
2023-05-24T22:19:40.803Z,10.40
2023-05-24T22:22:08.209Z,8.20
2023-05-24T22:24:35.350Z,10.00
2023-05-24T22:27:02.089Z,11.30
2023-05-24T22:29:28.863Z,7.80
2023-05-24T22:31:55.717Z,6.60
2023-05-24T22:34:26.820Z,6.90
2023-05-24T22:36:54.051Z,7.30
2023-05-24T22:39:21.242Z,8.50
2023-05-24T22:41:47.957Z,7.20
2023-05-24T22:44:15.245Z,6.70
2023-05-24T22:46:42.102Z,9.80
2023-05-24T22:49:12.692Z,7.00
2023-05-24T22:51:43.654Z,7.50
2023-05-24T22:54:11.187Z,7.10
2023-05-24T22:56:38.136Z,7.80
2023-05-24T22:59:05.072Z,7.20
2023-05-24T23:01:32.311Z,8.70
2023-05-24T23:04:08.096Z,8.70
2023-05-24T23:06:46.236Z,8.40
2023-05-24T23:09:12.992Z,10.50
2023-05-24T23:11:42.217Z,7.10
2023-05-24T23:14:10.647Z,8.00
2023-05-24T23:16:39.765Z,6.20
2023-05-24T23:19:06.530Z,5.50
2023-05-24T23:21:33.333Z,8.70
2023-05-24T23:24:03.366Z,13.20
2023-05-24T23:26:30.394Z,8.30
2023-05-24T23:28:57.141Z,7.00
2023-05-24T23:31:23.898Z,8.60
2023-05-24T23:33:51.714Z,8.80
2023-05-24T23:36:18.482Z,7.70
2023-05-24T23:38:45.186Z,5.70
2023-05-24T23:41:11.896Z,7.80
2023-05-24T23:43:38.675Z,8.80
2023-05-24T23:46:06.226Z,12.60
2023-05-24T23:48:33.124Z,9.30
2023-05-24T23:50:59.979Z,6.70
2023-05-24T23:53:26.633Z,8.90
2023-05-24T23:55:53.349Z,9.00
2023-05-24T23:58:20.217Z,8.10
